Time;durP1;ratioP1;P1;durP2;ratioP2;P2;SDS_P1;SDS_P2;PMS_P1;PMS_P2;Temp;Humidity;BMP_temperature;BMP_pressure;BME280_temperature;BME280_humidity;BME280_pressure;Samples;Min_cycle;Max_cycle;Signal;HPM_P1;HPM_P2
2024/01/26 00:02:10;;;;;;;7.38;5.38;;;25.00;99.90;;;;;;4972192;28;20565;-53
2024/01/26 00:04:36;;;;;;;6.40;4.97;;;25.00;99.90;;;;;;4971997;28;20130;-53
2024/01/26 00:07:02;;;;;;;8.02;5.50;;;25.00;99.90;;;;;;4972562;28;20038;-53
2024/01/26 00:09:27;;;;;;;7.32;5.45;;;25.00;99.90;;;;;;4954587;28;20179;-54
2024/01/26 00:11:53;;;;;;;7.43;5.60;;;24.90;99.90;;;;;;4972452;28;20438;-53
2024/01/26 00:14:19;;;;;;;7.38;5.80;;;24.90;99.90;;;;;;4972641;28;20027;-53
2024/01/26 00:16:45;;;;;;;7.47;5.20;;;24.90;99.90;;;;;;4972395;28;20023;-53
2024/01/26 00:19:10;;;;;;;7.22;5.35;;;24.90;99.90;;;;;;4972583;28;20038;-54
2024/01/26 00:21:38;;;;;;;7.93;5.78;;;24.90;99.90;;;;;;4969537;28;20055;-54
2024/01/26 00:24:05;;;;;;;7.82;6.07;;;24.90;99.90;;;;;;4970910;28;20357;-53
2024/01/26 00:26:31;;;;;;;7.50;5.40;;;24.90;99.90;;;;;;4954229;28;20054;-54
2024/01/26 00:28:56;;;;;;;8.02;5.25;;;24.80;99.90;;;;;;4972830;28;20423;-53
2024/01/26 00:31:22;;;;;;;7.18;5.47;;;24.80;99.90;;;;;;4972466;28;20041;-54
2024/01/26 00:33:48;;;;;;;7.50;5.45;;;24.80;99.90;;;;;;4971629;28;20034;-53
2024/01/26 00:36:14;;;;;;;7.80;6.10;;;24.80;99.90;;;;;;4972410;28;20062;-53
2024/01/26 00:38:43;;;;;;;8.10;5.47;;;24.80;99.90;;;;;;4972167;28;20027;-53
2024/01/26 00:41:10;;;;;;;9.10;6.63;;;24.80;99.90;;;;;;4972567;28;20074;-55
2024/01/26 00:43:35;;;;;;;10.57;6.93;;;24.70;99.90;;;;;;4972357;28;20030;-53
2024/01/26 00:46:01;;;;;;;8.20;6.07;;;24.70;99.90;;;;;;4955141;28;20027;-53
2024/01/26 00:48:27;;;;;;;8.82;6.75;;;24.70;99.90;;;;;;4972709;28;20038;-53
2024/01/26 00:50:54;;;;;;;9.70;6.63;;;24.70;99.90;;;;;;4972401;28;20498;-53
2024/01/26 00:53:21;;;;;;;9.05;6.80;;;24.70;99.90;;;;;;4972400;28;20498;-53
2024/01/26 00:55:47;;;;;;;10.82;7.15;;;24.70;99.90;;;;;;4972141;28;20023;-54
2024/01/26 00:58:13;;;;;;;10.68;7.53;;;24.70;99.90;;;;;;4972467;28;20435;-54
2024/01/26 01:00:39;;;;;;;10.15;7.15;;;24.70;99.90;;;;;;4972093;28;20026;-53
2024/01/26 01:03:05;;;;;;;10.15;7.45;;;24.60;99.90;;;;;;4972160;28;20054;-53
2024/01/26 01:05:31;;;;;;;10.30;7.30;;;24.60;99.90;;;;;;4974983;28;20475;-53
2024/01/26 01:07:57;;;;;;;11.20;7.63;;;24.60;99.90;;;;;;4976045;28;20039;-53
2024/01/26 01:10:23;;;;;;;10.27;7.35;;;24.60;99.90;;;;;;4975827;28;20038;-54
2024/01/26 01:12:49;;;;;;;10.27;7.32;;;24.60;99.90;;;;;;4975569;28;20593;-53
2024/01/26 01:15:17;;;;;;;10.25;7.70;;;24.60;99.90;;;;;;4975761;28;20034;-53
2024/01/26 01:17:44;;;;;;;9.98;7.00;;;24.60;99.90;;;;;;4975745;28;20031;-53
2024/01/26 01:20:11;;;;;;;11.77;7.63;;;24.50;99.90;;;;;;4975449;28;20034;-53
2024/01/26 01:22:37;;;;;;;12.77;7.47;;;24.50;99.90;;;;;;4958135;28;20026;-53
2024/01/26 01:25:05;;;;;;;10.57;7.53;;;24.50;99.90;;;;;;4975444;28;20023;-53
2024/01/26 01:27:31;;;;;;;12.18;7.75;;;24.50;99.90;;;;;;4975737;28;20082;-53
2024/01/26 01:29:58;;;;;;;12.00;8.20;;;24.50;99.90;;;;;;4958221;28;20035;-53
2024/01/26 01:32:24;;;;;;;11.35;8.02;;;24.50;99.90;;;;;;4975741;28;20398;-53
2024/01/26 01:34:51;;;;;;;12.07;8.32;;;24.50;99.90;;;;;;4975325;28;20130;-54
2024/01/26 01:37:17;;;;;;;12.25;7.85;;;24.50;99.90;;;;;;4975379;28;20049;-53
2024/01/26 01:39:42;;;;;;;11.90;7.80;;;24.50;99.90;;;;;;4975307;28;20027;-53
2024/01/26 01:42:13;;;;;;;11.52;7.60;;;24.40;99.90;;;;;;4975227;28;20491;-53
2024/01/26 01:44:46;;;;;;;10.48;7.95;;;24.40;99.90;;;;;;4975288;28;20435;-53
2024/01/26 01:47:14;;;;;;;11.07;7.68;;;24.40;99.90;;;;;;4974976;28;20034;-53
2024/01/26 01:49:41;;;;;;;;;;;24.40;99.90;;;;;;4975627;28;20043;-53
2024/01/26 01:52:12;;;;;;;11.43;8.35;;;24.40;99.90;;;;;;4974868;28;20381;-53
2024/01/26 01:54:38;;;;;;;13.68;8.73;;;24.30;99.90;;;;;;4975137;28;20050;-53
2024/01/26 01:57:04;;;;;;;10.95;7.95;;;24.30;99.90;;;;;;4974819;28;20026;-56
2024/01/26 01:59:31;;;;;;;11.63;7.97;;;24.30;99.90;;;;;;4974888;28;20051;-53
2024/01/26 02:01:57;;;;;;;12.73;8.88;;;24.30;99.90;;;;;;4975234;28;20043;-53
2024/01/26 02:04:23;;;;;;;10.95;7.60;;;24.30;99.90;;;;;;4974701;28;20146;-53
2024/01/26 02:07:00;;;;;;;10.27;6.68;;;24.30;99.90;;;;;;4974812;28;20034;-55
2024/01/26 02:09:26;;;;;;;10.55;7.57;;;24.30;99.90;;;;;;4974914;28;20054;-53
2024/01/26 02:11:52;;;;;;;10.10;7.65;;;24.20;99.90;;;;;;4974719;28;20129;-54
2024/01/26 02:14:19;;;;;;;12.23;8.02;;;24.20;99.90;;;;;;4974633;28;20460;-53
2024/01/26 02:16:58;;;;;;;11.57;8.00;;;24.20;99.90;;;;;;4974401;28;20025;-54
2024/01/26 02:19:26;;;;;;;10.98;8.07;;;24.30;99.90;;;;;;4975026;28;20435;-54
2024/01/26 02:21:52;;;;;;;10.88;7.50;;;24.20;99.90;;;;;;4974320;28;20025;-53
2024/01/26 02:24:18;;;;;;;10.27;7.40;;;24.20;99.90;;;;;;4974532;28;20125;-53
2024/01/26 02:26:44;;;;;;;11.40;8.10;;;24.20;99.90;;;;;;4956934;28;20472;-53
2024/01/26 02:29:10;;;;;;;12.00;7.50;;;24.20;99.90;;;;;;4974369;28;20475;-53
2024/01/26 02:31:36;;;;;;;9.80;7.78;;;24.20;99.90;;;;;;4974325;28;20383;-54
2024/01/26 02:34:02;;;;;;;12.82;8.32;;;24.20;99.90;;;;;;4974256;28;20029;-54
2024/01/26 02:36:29;;;;;;;9.65;7.15;;;24.20;99.90;;;;;;4974443;28;20431;-54
2024/01/26 02:38:55;;;;;;;11.90;7.57;;;24.10;99.90;;;;;;4974283;28;20093;-54
2024/01/26 02:41:21;;;;;;;10.48;7.22;;;24.10;99.90;;;;;;4974201;28;20134;-53
2024/01/26 02:43:47;;;;;;;12.73;7.97;;;24.10;99.90;;;;;;4973867;28;20164;-53
2024/01/26 02:46:13;;;;;;;11.00;7.22;;;24.10;99.90;;;;;;4974058;28;20022;-57
2024/01/26 02:48:39;;;;;;;10.07;7.22;;;24.10;99.90;;;;;;4956498;28;20038;-55
2024/01/26 02:51:05;;;;;;;10.02;6.68;;;24.10;99.90;;;;;;4974000;28;20085;-56
2024/01/26 02:53:31;;;;;;;8.73;6.90;;;24.10;99.90;;;;;;4973966;28;20479;-56
2024/01/26 02:55:57;;;;;;;12.23;7.85;;;24.00;99.90;;;;;;4973909;28;20022;-57
2024/01/26 02:58:23;;;;;;;11.05;7.57;;;24.00;99.90;;;;;;4956597;28;20078;-57
2024/01/26 03:00:49;;;;;;;10.75;7.57;;;24.00;99.90;;;;;;4974058;28;20525;-54
2024/01/26 03:03:15;;;;;;;11.10;7.32;;;24.00;99.90;;;;;;4973631;28;20034;-57
2024/01/26 03:05:41;;;;;;;10.52;7.13;;;24.00;99.90;;;;;;4973534;28;20442;-57
2024/01/26 03:08:07;;;;;;;10.07;7.20;;;24.00;99.90;;;;;;4973402;28;20019;-57
2024/01/26 03:10:33;;;;;;;12.05;7.60;;;24.00;99.90;;;;;;4973352;28;20475;-56
2024/01/26 03:13:01;;;;;;;10.80;6.50;;;24.00;99.90;;;;;;4973114;28;20054;-56
2024/01/26 03:15:26;;;;;;;9.43;6.75;;;24.00;99.90;;;;;;4973714;28;20077;-55
2024/01/26 03:17:52;;;;;;;10.45;6.97;;;24.00;99.90;;;;;;4973632;28;20033;-54
2024/01/26 03:20:18;;;;;;;10.55;6.97;;;23.90;99.90;;;;;;4973468;28;20522;-54
2024/01/26 03:22:44;;;;;;;9.32;6.38;;;23.90;99.90;;;;;;4973389;28;20030;-54
2024/01/26 03:25:10;;;;;;;11.02;6.68;;;23.90;99.90;;;;;;4956247;28;20479;-54
2024/01/26 03:27:36;;;;;;;10.90;6.78;;;23.90;99.90;;;;;;4972766;28;20062;-54
2024/01/26 03:30:03;;;;;;;10.45;6.18;;;23.90;99.90;;;;;;4973131;28;20022;-54
2024/01/26 03:32:30;;;;;;;8.90;6.30;;;23.90;99.90;;;;;;4973440;28;20448;-54
2024/01/26 03:34:56;;;;;;;8.27;6.18;;;23.90;99.90;;;;;;4973264;28;20026;-54
2024/01/26 03:37:22;;;;;;;11.55;6.22;;;23.90;99.90;;;;;;4973270;28;20122;-54
2024/01/26 03:39:48;;;;;;;9.48;6.22;;;23.90;99.90;;;;;;4955822;28;20379;-54
2024/01/26 03:42:14;;;;;;;8.70;6.50;;;23.80;99.90;;;;;;4972910;28;20035;-54
2024/01/26 03:44:41;;;;;;;10.82;6.63;;;23.80;99.90;;;;;;4973108;28;20031;-54
2024/01/26 03:47:07;;;;;;;10.02;6.10;;;23.80;99.90;;;;;;4972967;28;20019;-54
2024/01/26 03:49:32;;;;;;;11.85;6.55;;;23.80;99.90;;;;;;4955966;28;20045;-54
2024/01/26 03:51:58;;;;;;;9.40;5.60;;;23.80;99.90;;;;;;4972690;28;20035;-54
2024/01/26 03:54:24;;;;;;;10.35;6.32;;;23.80;99.90;;;;;;4955883;28;20054;-54
2024/01/26 03:56:50;;;;;;;9.05;5.97;;;23.80;99.90;;;;;;4972987;28;20034;-53
2024/01/26 03:59:15;;;;;;;12.63;5.95;;;23.80;99.90;;;;;;4972877;28;20109;-54
2024/01/26 04:01:43;;;;;;;8.15;5.55;;;23.80;99.90;;;;;;4955957;28;20488;-54
2024/01/26 04:04:09;;;;;;;8.82;6.28;;;23.80;99.90;;;;;;4972953;28;20027;-53
2024/01/26 04:06:41;;;;;;;11.48;6.05;;;23.80;99.90;;;;;;4972814;28;20368;-53
2024/01/26 04:09:08;;;;;;;11.48;5.63;;;23.70;99.90;;;;;;4972830;28;20019;-53
2024/01/26 04:11:34;;;;;;;9.60;6.80;;;23.80;99.90;;;;;;4972594;28;20033;-53
2024/01/26 04:13:59;;;;;;;11.13;5.93;;;23.70;99.90;;;;;;4972765;28;20034;-54
2024/01/26 04:16:25;;;;;;;9.48;5.72;;;23.70;99.90;;;;;;4973098;28;20066;-53
2024/01/26 04:18:51;;;;;;;10.27;5.40;;;23.70;99.90;;;;;;4972760;28;20109;-54
2024/01/26 04:21:17;;;;;;;9.15;5.75;;;23.70;99.90;;;;;;4972760;28;20050;-54
2024/01/26 04:23:42;;;;;;;8.98;6.20;;;23.70;99.90;;;;;;4972611;28;20049;-53
2024/01/26 04:26:08;;;;;;;8.75;5.78;;;23.70;99.90;;;;;;4972777;28;20105;-53
2024/01/26 04:28:34;;;;;;;9.18;5.85;;;23.70;99.90;;;;;;4972647;28;20027;-54
2024/01/26 04:31:00;;;;;;;10.05;5.88;;;23.70;99.90;;;;;;4972569;28;20122;-54
2024/01/26 04:33:26;;;;;;;9.27;5.72;;;23.70;99.90;;;;;;4972710;28;20054;-53
2024/01/26 04:35:52;;;;;;;8.13;5.88;;;23.60;99.90;;;;;;4972689;28;20061;-52
2024/01/26 04:38:17;;;;;;;8.90;5.93;;;23.60;99.90;;;;;;4955043;28;20097;-52
2024/01/26 04:40:43;;;;;;;11.27;5.50;;;23.60;99.90;;;;;;4975624;28;20429;-53
2024/01/26 04:43:09;;;;;;;9.70;5.65;;;23.60;99.90;;;;;;4976417;28;20031;-53
2024/01/26 04:45:35;;;;;;;9.85;5.90;;;23.60;99.90;;;;;;4976269;28;20057;-53
2024/01/26 04:48:01;;;;;;;10.55;5.55;;;23.60;99.90;;;;;;4976313;28;20471;-53
2024/01/26 04:50:27;;;;;;;11.25;5.95;;;23.60;99.90;;;;;;4976452;28;20031;-53
2024/01/26 04:52:53;;;;;;;8.70;5.93;;;23.60;99.90;;;;;;4976095;28;20065;-53
2024/01/26 04:55:22;;;;;;;9.43;6.33;;;23.60;99.90;;;;;;4976008;28;20058;-53
2024/01/26 04:57:48;;;;;;;10.65;5.95;;;23.50;99.90;;;;;;4976135;28;20081;-53
2024/01/26 05:00:16;;;;;;;9.00;5.75;;;23.50;99.90;;;;;;4976230;28;20463;-52
2024/01/26 05:02:41;;;;;;;7.18;5.15;;;23.50;99.90;;;;;;4976158;28;20058;-53
2024/01/26 05:05:07;;;;;;;7.20;5.68;;;23.50;99.90;;;;;;4976101;28;20403;-53
2024/01/26 05:07:33;;;;;;;7.53;5.30;;;23.50;99.90;;;;;;4975911;28;20128;-53
2024/01/26 05:09:59;;;;;;;11.02;5.72;;;23.50;99.90;;;;;;4975650;28;20042;-53
2024/01/26 05:12:25;;;;;;;9.35;5.72;;;23.50;99.90;;;;;;4959032;28;20125;-53
2024/01/26 05:14:50;;;;;;;9.90;5.47;;;23.50;99.90;;;;;;4975639;28;20023;-53
2024/01/26 05:17:17;;;;;;;8.90;6.05;;;23.50;99.90;;;;;;4975880;28;20493;-53
2024/01/26 05:19:43;;;;;;;9.55;5.53;;;23.50;99.90;;;;;;4975499;28;20095;-53
2024/01/26 05:22:08;;;;;;;9.10;5.95;;;23.40;99.90;;;;;;4975599;28;20043;-53
2024/01/26 05:24:34;;;;;;;8.85;5.90;;;23.40;99.90;;;;;;4975699;28;20085;-53
2024/01/26 05:27:00;;;;;;;9.77;5.82;;;23.50;99.90;;;;;;4958210;28;20450;-53
2024/01/26 05:29:26;;;;;;;8.95;6.15;;;23.40;99.90;;;;;;4975754;28;20033;-53
2024/01/26 05:31:52;;;;;;;10.13;6.13;;;23.40;99.90;;;;;;4958229;28;20031;-53
2024/01/26 05:34:18;;;;;;;9.00;6.22;;;23.40;99.90;;;;;;4975551;28;20464;-53
2024/01/26 05:36:44;;;;;;;9.77;6.40;;;23.40;99.90;;;;;;4975234;28;20497;-53
2024/01/26 05:39:10;;;;;;;9.30;5.85;;;23.40;99.90;;;;;;4975443;28;20098;-52
2024/01/26 05:41:36;;;;;;;8.70;6.03;;;23.40;99.90;;;;;;4975343;28;20023;-52
2024/01/26 05:44:02;;;;;;;9.25;5.78;;;23.40;99.90;;;;;;4957666;28;20022;-53
2024/01/26 05:46:28;;;;;;;8.55;5.97;;;23.30;99.90;;;;;;4975316;28;20388;-52
2024/01/26 05:48:56;;;;;;;11.50;6.03;;;23.40;99.90;;;;;;4975344;28;20018;-53
2024/01/26 05:51:22;;;;;;;11.05;6.47;;;23.30;99.90;;;;;;4974666;28;20027;-53
2024/01/26 05:53:48;;;;;;;10.00;6.22;;;23.30;99.90;;;;;;4974879;28;20498;-52
2024/01/26 05:56:14;;;;;;;8.98;6.43;;;23.30;99.90;;;;;;4974928;28;20019;-53
2024/01/26 05:58:40;;;;;;;9.90;6.28;;;23.30;99.90;;;;;;4974993;28;20105;-53
2024/01/26 06:01:06;;;;;;;11.13;5.85;;;23.30;99.90;;;;;;4973147;28;20035;-53
2024/01/26 06:03:32;;;;;;;8.50;6.35;;;23.30;99.90;;;;;;4974435;28;20356;-52
2024/01/26 06:05:58;;;;;;;10.80;6.57;;;23.30;99.90;;;;;;4974827;28;20399;-54
2024/01/26 06:08:24;;;;;;;9.93;6.15;;;23.20;99.90;;;;;;4975135;28;20058;-54
2024/01/26 06:10:51;;;;;;;9.57;6.47;;;23.30;99.90;;;;;;4973700;28;20066;-54
2024/01/26 06:13:18;;;;;;;;;;;23.20;99.90;;;;;;4957959;28;20081;-54
2024/01/26 06:15:43;;;;;;;8.60;6.03;;;23.20;99.90;;;;;;4974559;28;20000;-54
2024/01/26 06:18:09;;;;;;;10.27;6.53;;;23.20;99.90;;;;;;4974310;28;20132;-54
2024/01/26 06:20:35;;;;;;;12.38;5.85;;;23.20;99.90;;;;;;4974627;28;20030;-54
2024/01/26 06:23:01;;;;;;;9.80;6.18;;;23.20;99.90;;;;;;4956980;28;20570;-54
2024/01/26 06:25:27;;;;;;;10.57;5.82;;;23.20;99.90;;;;;;4974520;28;20045;-53
2024/01/26 06:27:53;;;;;;;9.43;6.32;;;23.20;99.90;;;;;;4974393;28;20110;-53
2024/01/26 06:30:19;;;;;;;11.18;5.95;;;23.10;99.90;;;;;;4974103;28;20085;-54
2024/01/26 06:32:44;;;;;;;9.63;6.05;;;23.10;99.90;;;;;;4974247;28;20610;-54
2024/01/26 06:35:11;;;;;;;11.02;6.03;;;23.20;99.90;;;;;;4974108;28;20026;-53
2024/01/26 06:37:36;;;;;;;9.48;6.15;;;23.10;99.90;;;;;;4974164;28;20030;-54
2024/01/26 06:40:03;;;;;;;9.05;6.05;;;23.10;99.90;;;;;;4974006;28;20018;-54
2024/01/26 06:42:32;;;;;;;8.77;5.25;;;23.10;99.90;;;;;;4974194;28;20022;-54
2024/01/26 06:44:58;;;;;;;9.43;5.88;;;23.10;99.90;;;;;;4974144;28;20038;-54
2024/01/26 06:47:23;;;;;;;8.18;5.90;;;23.10;99.90;;;;;;4973920;28;20027;-54
2024/01/26 06:49:49;;;;;;;11.77;6.32;;;23.10;99.90;;;;;;4956413;28;20023;-54
2024/01/26 06:52:15;;;;;;;11.05;5.60;;;23.10;99.90;;;;;;4956256;28;20039;-53
2024/01/26 06:54:41;;;;;;;7.78;5.38;;;23.10;99.90;;;;;;4973949;28;20029;-54
2024/01/26 06:57:07;;;;;;;9.88;5.60;;;23.10;99.90;;;;;;4973698;28;20402;-54
2024/01/26 06:59:37;;;;;;;8.95;5.47;;;23.10;99.90;;;;;;4973658;28;20031;-53
2024/01/26 07:02:04;;;;;;;7.72;5.45;;;23.00;99.90;;;;;;4972498;28;20057;-53
2024/01/26 07:04:29;;;;;;;10.65;5.75;;;23.10;99.90;;;;;;4973570;28;20073;-53
2024/01/26 07:06:55;;;;;;;7.60;5.68;;;23.10;99.90;;;;;;4973826;28;20410;-54
2024/01/26 07:09:21;;;;;;;9.30;5.47;;;23.00;99.90;;;;;;4973645;28;20022;-53
2024/01/26 07:11:47;;;;;;;9.50;5.57;;;23.00;99.90;;;;;;4973334;28;20027;-53
2024/01/26 07:14:13;;;;;;;9.65;6.45;;;23.00;99.90;;;;;;4973489;28;20452;-53
2024/01/26 07:16:39;;;;;;;9.63;5.97;;;23.00;99.90;;;;;;4973247;28;20019;-52
2024/01/26 07:19:05;;;;;;;8.10;4.63;;;23.00;99.90;;;;;;4973285;28;20353;-53
2024/01/26 07:21:31;;;;;;;8.25;5.65;;;23.00;99.90;;;;;;4973186;28;20102;-53
2024/01/26 07:23:58;;;;;;;8.88;5.80;;;22.90;99.90;;;;;;4973574;28;20023;-54
2024/01/26 07:26:25;;;;;;;6.97;4.95;;;22.90;99.90;;;;;;4973413;28;20070;-53
2024/01/26 07:28:51;;;;;;;11.00;5.70;;;22.90;99.90;;;;;;4973262;28;20065;-53
2024/01/26 07:31:16;;;;;;;9.32;5.25;;;22.90;99.90;;;;;;4973175;28;20054;-53
2024/01/26 07:33:42;;;;;;;8.32;5.85;;;22.90;99.90;;;;;;4973194;28;20027;-53
2024/01/26 07:36:08;;;;;;;10.23;5.93;;;22.90;99.90;;;;;;4973283;28;20030;-54
2024/01/26 07:38:34;;;;;;;8.13;5.45;;;22.90;99.90;;;;;;4973098;28;20019;-53
2024/01/26 07:41:00;;;;;;;7.72;5.13;;;22.90;99.90;;;;;;4973223;28;20027;-53
2024/01/26 07:43:25;;;;;;;9.07;5.18;;;22.90;99.90;;;;;;4973284;28;20026;-55
2024/01/26 07:45:51;;;;;;;9.52;5.25;;;22.90;99.90;;;;;;4972982;28;20494;-55
2024/01/26 07:48:17;;;;;;;6.38;4.63;;;22.90;99.90;;;;;;4973008;28;20027;-54
2024/01/26 07:50:43;;;;;;;8.45;5.07;;;22.90;99.90;;;;;;4972920;28;20118;-55
2024/01/26 07:53:09;;;;;;;7.20;5.03;;;22.90;99.90;;;;;;4955527;28;20008;-55
2024/01/26 07:55:36;;;;;;;10.75;5.57;;;22.90;99.90;;;;;;4972872;28;20089;-54
2024/01/26 07:58:02;;;;;;;9.88;5.38;;;22.90;99.90;;;;;;4955817;28;20025;-54
2024/01/26 08:00:28;;;;;;;6.03;4.63;;;22.90;99.90;;;;;;4955688;28;20019;-54
2024/01/26 08:02:54;;;;;;;7.18;4.70;;;23.00;99.90;;;;;;4972709;28;20129;-55
2024/01/26 08:05:20;;;;;;;9.77;5.53;;;23.00;99.90;;;;;;4972831;28;20134;-55
2024/01/26 08:07:46;;;;;;;10.60;6.18;;;23.00;99.90;;;;;;4972703;28;20031;-55
2024/01/26 08:10:12;;;;;;;8.38;5.50;;;23.00;99.90;;;;;;4972713;28;20106;-54
2024/01/26 08:12:40;;;;;;;8.00;5.57;;;23.00;99.90;;;;;;4972631;28;20118;-55
2024/01/26 08:15:07;;;;;;;10.25;5.45;;;23.00;99.90;;;;;;4961543;28;20019;-55
2024/01/26 08:17:33;;;;;;;7.72;4.63;;;23.00;99.90;;;;;;4962060;28;20030;-53
2024/01/26 08:20:01;;;;;;;11.77;5.85;;;23.10;99.90;;;;;;4978931;28;20042;-52
2024/01/26 08:22:27;;;;;;;8.52;5.10;;;23.10;99.90;;;;;;4979292;28;20033;-53
2024/01/26 08:24:53;;;;;;;7.95;4.93;;;23.10;99.90;;;;;;4978788;28;20355;-53
2024/01/26 08:27:19;;;;;;;9.93;4.97;;;23.10;99.90;;;;;;4979095;28;20085;-53
2024/01/26 08:29:44;;;;;;;7.03;4.82;;;23.10;99.90;;;;;;4979106;28;20379;-53
2024/01/26 08:32:10;;;;;;;8.13;4.97;;;23.10;99.90;;;;;;4961534;28;20462;-53
2024/01/26 08:34:36;;;;;;;10.77;5.18;;;23.20;99.90;;;;;;4979211;28;20030;-54
2024/01/26 08:37:03;;;;;;;8.88;5.00;;;23.10;99.90;;;;;;4978797;28;20034;-54
2024/01/26 08:39:29;;;;;;;8.13;5.00;;;23.20;99.90;;;;;;4961657;28;20471;-54
2024/01/26 08:41:55;;;;;;;8.63;4.72;;;23.20;99.90;;;;;;4978994;28;20533;-53
2024/01/26 08:44:22;;;;;;;7.18;4.90;;;23.20;99.90;;;;;;4961515;28;20114;-54
2024/01/26 08:46:49;;;;;;;10.65;4.72;;;23.20;99.90;;;;;;4978854;28;20018;-54
2024/01/26 08:49:15;;;;;;;8.15;5.07;;;23.20;99.90;;;;;;4979006;28;20054;-53
2024/01/26 08:51:41;;;;;;;10.55;5.50;;;23.20;99.90;;;;;;4978874;28;20039;-53
2024/01/26 08:54:12;;;;;;;8.85;5.47;;;23.20;99.90;;;;;;4978699;28;20464;-53
2024/01/26 08:56:44;;;;;;;10.80;4.97;;;23.20;99.90;;;;;;4978877;28;20022;-53
2024/01/26 08:59:10;;;;;;;7.38;5.03;;;23.30;99.90;;;;;;4978685;28;20033;-53
2024/01/26 09:01:38;;;;;;;7.88;4.93;;;23.30;99.90;;;;;;4978641;28;20034;-54
2024/01/26 09:04:05;;;;;;;10.23;5.15;;;23.30;99.90;;;;;;4978584;28;20023;-54
2024/01/26 09:06:32;;;;;;;7.53;4.82;;;23.30;99.90;;;;;;4978617;28;20019;-53
2024/01/26 09:08:58;;;;;;;8.87;4.77;;;23.30;99.90;;;;;;4978998;28;20497;-53
2024/01/26 09:11:23;;;;;;;8.52;5.13;;;23.30;99.90;;;;;;4978851;28;20121;-53
2024/01/26 09:13:49;;;;;;;9.07;4.85;;;23.40;99.90;;;;;;4978705;28;20037;-52
2024/01/26 09:16:15;;;;;;;8.45;4.97;;;23.40;99.90;;;;;;4961101;28;20101;-54
2024/01/26 09:18:41;;;;;;;8.75;4.75;;;23.40;99.90;;;;;;4961372;28;20030;-53
2024/01/26 09:21:12;;;;;;;9.75;5.53;;;23.40;99.90;;;;;;4978831;28;20130;-53
2024/01/26 09:23:39;;;;;;;8.82;4.97;;;23.40;99.90;;;;;;4979896;28;20062;-53
2024/01/26 09:26:05;;;;;;;7.70;5.55;;;23.50;99.90;;;;;;4976956;28;20117;-52
2024/01/26 09:28:31;;;;;;;9.30;6.13;;;23.50;99.90;;;;;;4976512;28;20097;-52
2024/01/26 09:30:58;;;;;;;7.60;4.72;;;23.50;99.90;;;;;;4976716;28;20484;-53
2024/01/26 09:33:24;;;;;;;7.15;5.05;;;23.50;99.90;;;;;;4975782;28;20037;-53
2024/01/26 09:35:49;;;;;;;7.13;4.82;;;23.50;99.90;;;;;;4975498;28;20022;-53
2024/01/26 09:38:18;;;;;;;9.38;5.60;;;23.50;99.90;;;;;;4957914;28;20031;-52
2024/01/26 09:40:44;;;;;;;9.63;5.07;;;23.60;99.90;;;;;;4975319;28;20451;-54
2024/01/26 09:43:10;;;;;;;9.45;5.70;;;23.60;99.90;;;;;;4957753;28;20030;-54
2024/01/26 09:45:36;;;;;;;10.45;5.70;;;23.60;99.90;;;;;;4958014;28;20027;-54
2024/01/26 09:48:05;;;;;;;11.77;5.65;;;23.60;99.90;;;;;;4975239;28;20047;-54
2024/01/26 09:50:31;;;;;;;10.93;6.32;;;23.70;99.90;;;;;;4975057;28;20019;-54
2024/01/26 09:53:00;;;;;;;8.90;5.70;;;23.70;99.90;;;;;;4975211;28;20035;-54
2024/01/26 09:55:27;;;;;;;11.38;6.43;;;23.70;99.90;;;;;;4975188;28;20023;-53
2024/01/26 09:57:53;;;;;;;12.43;6.80;;;23.80;99.90;;;;;;4975072;28;20027;-53
2024/01/26 10:00:19;;;;;;;11.85;5.72;;;23.80;99.90;;;;;;4974990;28;20022;-53
2024/01/26 10:02:45;;;;;;;17.27;7.13;;;23.80;99.90;;;;;;4974480;28;20055;-54
2024/01/26 10:05:15;;;;;;;9.95;5.68;;;23.90;99.90;;;;;;4975004;28;20116;-53
2024/01/26 10:07:41;;;;;;;11.75;7.00;;;23.80;99.90;;;;;;4974670;28;20106;-53
2024/01/26 10:10:08;;;;;;;14.52;7.22;;;23.90;99.90;;;;;;4974890;28;20106;-54
2024/01/26 10:12:35;;;;;;;9.45;6.47;;;24.00;99.90;;;;;;4974806;28;20034;-53
2024/01/26 10:15:07;;;;;;;12.70;6.95;;;24.00;99.90;;;;;;4974440;28;20356;-53
2024/01/26 10:17:33;;;;;;;13.90;6.78;;;24.00;99.90;;;;;;4974735;28;20105;-54
2024/01/26 10:20:14;;;;;;;13.82;7.88;;;24.10;99.90;;;;;;4974407;28;20098;-53
2024/01/26 10:22:44;;;;;;;15.63;7.43;;;24.10;99.90;;;;;;4957059;28;20487;-53
2024/01/26 10:25:10;;;;;;;10.50;6.95;;;24.20;99.90;;;;;;4974441;28;20143;-54
2024/01/26 10:27:36;;;;;;;11.27;7.40;;;24.20;99.90;;;;;;4974820;28;20094;-54
2024/01/26 10:30:03;;;;;;;11.73;6.75;;;24.20;99.90;;;;;;4957060;28;20113;-54
2024/01/26 10:32:30;;;;;;;12.18;8.02;;;24.30;99.90;;;;;;4974184;28;20110;-54
2024/01/26 10:35:00;;;;;;;13.55;7.88;;;24.30;99.90;;;;;;4974493;28;20031;-54
2024/01/26 10:37:34;;;;;;;16.00;7.82;;;24.30;99.90;;;;;;4973541;28;20110;-54
2024/01/26 10:40:01;;;;;;;13.73;8.73;;;24.40;99.90;;;;;;4974120;28;20035;-54
2024/01/26 10:42:32;;;;;;;13.40;8.02;;;24.40;99.90;;;;;;4974291;28;20027;-54
2024/01/26 10:45:00;;;;;;;13.75;7.53;;;24.50;99.90;;;;;;4974229;28;20027;-53
2024/01/26 10:47:27;;;;;;;11.57;8.05;;;24.50;99.90;;;;;;4974219;28;20054;-54
2024/01/26 10:50:05;;;;;;;12.57;9.10;;;24.50;99.90;;;;;;4974437;28;20391;-54
2024/01/26 10:52:35;;;;;;;27.90;9.50;;;24.50;99.90;;;;;;4973780;28;20035;-54
2024/01/26 10:55:03;;;;;;;12.95;8.60;;;24.50;99.90;;;;;;4973754;28;20030;-54
2024/01/26 10:57:29;;;;;;;17.90;9.43;;;24.70;99.90;;;;;;4973774;28;20106;-54
2024/01/26 10:59:55;;;;;;;15.52;9.20;;;24.60;99.90;;;;;;4973849;28;20106;-56
2024/01/26 11:02:27;;;;;;;18.08;9.48;;;24.70;99.90;;;;;;4959975;28;20585;-56
2024/01/26 11:04:53;;;;;;;18.17;9.45;;;24.70;99.90;;;;;;4973475;28;20050;-54
2024/01/26 11:07:20;;;;;;;17.80;9.98;;;24.70;99.90;;;;;;4973738;28;20033;-55
2024/01/26 11:09:49;;;;;;;17.02;10.10;;;24.80;99.90;;;;;;4972816;28;20055;-55
2024/01/26 11:12:22;;;;;;;15.27;10.00;;;24.90;99.90;;;;;;4972841;28;20043;-56
2024/01/26 11:15:09;;;;;;;16.45;10.18;;;24.80;99.90;;;;;;4955763;28;20436;-56
2024/01/26 11:18:03;;;;;;;17.70;11.32;;;24.90;99.90;;;;;;4972741;28;20391;-56
2024/01/26 11:20:31;;;;;;;19.77;10.57;;;24.90;99.90;;;;;;4970548;28;20053;-55
2024/01/26 11:23:18;;;;;;;19.95;10.98;;;25.00;99.90;;;;;;4973219;28;20022;-54
2024/01/26 11:25:45;;;;;;;18.50;11.48;;;25.00;99.90;;;;;;4973197;28;20026;-54
2024/01/26 11:28:15;;;;;;;17.50;11.30;;;25.00;99.90;;;;;;4973198;28;20134;-55
2024/01/26 11:30:44;;;;;;;15.98;11.52;;;25.00;99.90;;;;;;4972928;28;20022;-53
2024/01/26 11:33:23;;;;;;;18.60;11.80;;;25.10;99.90;;;;;;4973209;28;20053;-54
2024/01/26 11:35:49;;;;;;;17.80;12.60;;;25.10;99.90;;;;;;4972193;28;20027;-55
2024/01/26 11:38:15;;;;;;;17.40;12.65;;;25.10;99.90;;;;;;4973075;28;20026;-54
2024/01/26 11:40:41;;;;;;;18.67;11.80;;;25.10;99.90;;;;;;4972658;28;20098;-55
2024/01/26 11:43:09;;;;;;;18.83;13.13;;;25.20;99.90;;;;;;4972194;28;20138;-54
2024/01/26 11:45:46;;;;;;;21.30;12.80;;;25.20;99.90;;;;;;4955387;28;20034;-55
2024/01/26 11:48:13;;;;;;;19.00;12.52;;;25.20;99.90;;;;;;4963982;28;20034;-55
2024/01/26 11:50:45;;;;;;;18.05;12.98;;;25.30;99.90;;;;;;4972142;28;20506;-54
2024/01/26 11:53:13;;;;;;;21.20;15.10;;;25.30;99.90;;;;;;4972902;28;20407;-55
2024/01/26 11:55:39;;;;;;;21.60;14.88;;;25.30;99.90;;;;;;4972806;28;20038;-54
2024/01/26 11:58:06;;;;;;;21.50;14.30;;;25.30;99.90;;;;;;4972864;28;20134;-54
2024/01/26 12:00:32;;;;;;;22.23;15.32;;;25.30;99.90;;;;;;4972939;28;20383;-56
2024/01/26 12:02:58;;;;;;;24.75;15.13;;;25.40;99.90;;;;;;4972527;28;20094;-55
2024/01/26 12:05:26;;;;;;;23.05;15.57;;;25.40;99.90;;;;;;4955711;28;20081;-55
2024/01/26 12:07:53;;;;;;;26.63;15.95;;;25.40;99.90;;;;;;4972868;28;20073;-54
2024/01/26 12:10:19;;;;;;;24.55;16.83;;;25.40;99.90;;;;;;4972976;28;20051;-54
2024/01/26 12:12:48;;;;;;;25.48;16.10;;;25.40;99.90;;;;;;4969370;28;20402;-56
2024/01/26 12:15:14;;;;;;;25.45;15.65;;;25.40;99.90;;;;;;4970432;28;20375;-54
2024/01/26 12:17:39;;;;;;;23.27;15.80;;;25.40;99.90;;;;;;4973020;28;20033;-54
2024/01/26 12:20:08;;;;;;;27.08;16.50;;;25.40;99.90;;;;;;4971069;28;20445;-51
2024/01/26 12:22:34;;;;;;;26.77;16.25;;;25.40;99.90;;;;;;4971568;28;20035;-53
2024/01/26 12:25:03;;;;;;;29.48;18.80;;;25.50;99.90;;;;;;4956338;28;20130;-53
2024/01/26 12:27:29;;;;;;;25.42;17.35;;;25.50;99.90;;;;;;4972861;28;20027;-55
2024/01/26 12:29:55;;;;;;;25.85;18.83;;;25.60;99.90;;;;;;4972877;28;20023;-54
2024/01/26 12:32:20;;;;;;;28.83;18.42;;;25.60;99.90;;;;;;4959860;28;20038;-56
2024/01/26 12:34:47;;;;;;;25.40;18.05;;;25.60;99.90;;;;;;4972444;28;20110;-57
2024/01/26 12:37:13;;;;;;;25.42;18.25;;;25.60;99.90;;;;;;4970312;28;20107;-56
2024/01/26 12:39:39;;;;;;;25.80;17.77;;;25.70;99.90;;;;;;4972577;28;20412;-56